createdAt,value
2018-10-16T00:01:31.474Z,55.74
2018-10-16T00:05:36.823Z,55.79
2018-10-16T00:09:41.367Z,55.89
2018-10-16T00:13:45.927Z,56.52
2018-10-16T00:17:50.241Z,56.45
2018-10-16T00:21:54.666Z,56.72
2018-10-16T00:25:59.011Z,56.50
2018-10-16T00:30:03.359Z,56.37
2018-10-16T00:34:07.840Z,56.57
2018-10-16T00:38:12.257Z,56.59
2018-10-16T00:42:16.806Z,57.13
2018-10-16T00:46:21.447Z,56.54
2018-10-16T00:50:25.691Z,57.70
2018-10-16T00:54:29.746Z,57.51
2018-10-16T00:58:33.782Z,56.72
2018-10-16T01:02:37.990Z,57.10
2018-10-16T01:06:42.368Z,56.60
2018-10-16T01:10:47.206Z,56.30
2018-10-16T01:14:51.639Z,57.17
2018-10-16T01:18:55.973Z,57.23
2018-10-16T01:22:59.997Z,57.16
2018-10-16T01:27:03.984Z,56.96
2018-10-16T01:31:08.331Z,57.20
2018-10-16T01:35:13.106Z,57.36
2018-10-16T01:39:17.118Z,56.67
2018-10-16T01:43:21.412Z,57.25
2018-10-16T01:47:25.483Z,56.57
2018-10-16T01:51:29.601Z,57.51
2018-10-16T01:55:34.531Z,57.09
2018-10-16T01:59:38.527Z,57.32
2018-10-16T02:03:42.646Z,58.28
2018-10-16T02:07:49.203Z,58.09
2018-10-16T02:11:53.331Z,58.06
2018-10-16T02:15:57.569Z,58.25
2018-10-16T02:20:01.692Z,59.02
2018-10-16T02:24:05.843Z,59.57
2018-10-16T02:28:10.036Z,59.71
2018-10-16T02:32:14.068Z,59.81
2018-10-16T02:36:18.061Z,59.51
2018-10-16T02:40:22.022Z,59.85
2018-10-16T02:44:26.009Z,59.68
2018-10-16T02:48:30.286Z,60.16
2018-10-16T02:52:34.255Z,59.61
2018-10-16T02:56:38.358Z,59.73
2018-10-16T03:00:42.463Z,59.91
2018-10-16T03:04:46.398Z,60.04
2018-10-16T03:08:51.495Z,59.59
2018-10-16T03:12:55.517Z,60.04
2018-10-16T03:16:59.700Z,60.26
2018-10-16T03:21:03.657Z,60.37
2018-10-16T03:25:08.834Z,60.23
2018-10-16T03:29:12.863Z,59.87
2018-10-16T03:33:16.975Z,60.61
2018-10-16T03:37:20.979Z,60.46
2018-10-16T03:41:25.038Z,60.49
2018-10-16T03:45:28.974Z,60.02
2018-10-16T03:49:33.037Z,60.26
2018-10-16T03:53:37.001Z,60.69
2018-10-16T03:57:41.015Z,60.66
2018-10-16T04:01:45.104Z,60.01
2018-10-16T04:05:50.144Z,60.13
2018-10-16T04:09:54.883Z,60.04
2018-10-16T04:13:59.077Z,60.49
2018-10-16T04:18:03.356Z,60.42
2018-10-16T04:22:07.765Z,59.42
2018-10-16T04:26:13.158Z,60.15
2018-10-16T04:30:17.374Z,59.79
2018-10-16T04:34:21.722Z,59.73
2018-10-16T04:38:25.938Z,60.41
2018-10-16T04:42:30.364Z,60.00
2018-10-16T04:46:34.598Z,60.08
2018-10-16T04:50:38.935Z,60.12
2018-10-16T04:54:43.074Z,59.49
2018-10-16T04:58:46.964Z,60.21
2018-10-16T05:02:50.993Z,60.15
2018-10-16T05:06:55.074Z,60.11
2018-10-16T05:10:59.077Z,60.00
2018-10-16T05:15:03.120Z,59.87
2018-10-16T05:19:07.219Z,59.72
2018-10-16T05:23:11.287Z,60.30
2018-10-16T05:27:15.283Z,60.52
2018-10-16T05:31:19.607Z,60.36
2018-10-16T05:35:23.808Z,60.14
2018-10-16T05:39:29.173Z,60.64
2018-10-16T05:43:33.772Z,60.74
2018-10-16T05:47:38.124Z,60.24
2018-10-16T05:51:42.818Z,60.42
2018-10-16T05:55:47.053Z,61.27
2018-10-16T05:59:55.065Z,60.95
2018-10-16T06:03:59.270Z,60.67
2018-10-16T06:08:04.519Z,61.34
2018-10-16T06:12:09.844Z,61.42
2018-10-16T06:16:13.846Z,60.95
2018-10-16T06:20:18.098Z,61.04
2018-10-16T06:24:22.408Z,61.21
2018-10-16T06:28:28.101Z,61.07
2018-10-16T06:32:32.226Z,60.80
2018-10-16T06:36:36.426Z,61.13
2018-10-16T06:40:41.861Z,61.03
2018-10-16T06:44:45.994Z,60.52
2018-10-16T06:48:51.418Z,60.09
2018-10-16T06:52:55.600Z,59.92
2018-10-16T06:57:00.122Z,59.77
2018-10-16T07:01:04.863Z,60.20
2018-10-16T07:05:09.246Z,59.76
2018-10-16T07:09:13.865Z,59.69
2018-10-16T07:13:19.361Z,59.28
2018-10-16T07:17:23.870Z,58.93
2018-10-16T07:21:28.267Z,59.50
2018-10-16T07:25:41.633Z,59.40
2018-10-16T07:34:02.846Z,58.69
2018-10-16T07:38:07.502Z,58.98
2018-10-16T07:42:14.561Z,58.69
2018-10-16T07:46:20.910Z,58.93
2018-10-16T07:50:28.301Z,58.92
2018-10-16T07:54:39.827Z,58.63
2018-10-16T07:58:59.112Z,57.86
2018-10-16T16:59:38.286Z,47.61
2018-10-16T17:03:42.556Z,47.80
2018-10-16T18:22:21.623Z,53.17
2018-10-16T18:40:07.632Z,53.73
2018-10-16T18:53:47.614Z,54.19
2018-10-16T18:57:53.730Z,54.29
2018-10-16T21:44:49.555Z,61.27
2018-10-16T21:48:54.368Z,61.37
2018-10-16T21:52:58.661Z,61.50
2018-10-16T22:01:14.809Z,62.45
2018-10-16T22:05:23.845Z,62.74
2018-10-16T22:09:28.027Z,62.74
2018-10-16T22:13:32.032Z,63.39
2018-10-16T22:17:36.011Z,63.12
2018-10-16T22:21:40.002Z,63.01
2018-10-16T22:25:43.980Z,63.30
2018-10-16T22:29:47.969Z,63.27
2018-10-16T22:33:52.718Z,62.93
2018-10-16T22:37:56.672Z,63.44
2018-10-16T22:42:00.440Z,63.97
2018-10-16T22:46:04.218Z,63.27
2018-10-16T22:50:11.443Z,63.43
2018-10-16T22:54:15.363Z,63.94
2018-10-16T22:58:19.282Z,63.85
2018-10-16T23:02:23.593Z,63.80
2018-10-16T23:06:27.473Z,63.47
2018-10-16T23:10:31.433Z,63.76
2018-10-16T23:14:35.359Z,64.13
2018-10-16T23:18:39.290Z,63.61
2018-10-16T23:22:43.317Z,63.42
2018-10-16T23:26:47.267Z,63.38
2018-10-16T23:30:51.178Z,63.58
2018-10-16T23:34:55.232Z,63.35
2018-10-16T23:38:58.848Z,63.81
2018-10-16T23:43:02.804Z,64.36
2018-10-16T23:47:06.806Z,64.33
2018-10-16T23:51:10.595Z,64.18
2018-10-16T23:55:14.469Z,64.08
2018-10-16T23:59:18.344Z,64.71
